ADDS TAF Board (Experimental) INFO Settings
IDs: Format: Expanded Condensed

KMDW - Chicago/Midway Intl, IL, US

Issued at 1130 UTC 30 Jul 2016
Updated at 1301 UTC 30 Jul 2016
Time1253Z 30/13Z 30/14Z 30/15Z 30/16Z 30/17Z 30/18Z 30/19Z 30/20Z 30/21Z 30/22Z 30/23Z 31/00Z 31/01Z
Type OBS PRVL PRVL PRVL PRVL
  [TEMP]  
PRVL
  [TEMP]  
PRVL PRVL PRVL PRVL PRVL PRVL PRVL PRVL
VIS 10 >6 >6 >6 6
  [4]  
6
  [4]  
6 6 >6 >6 >6 >6 >6 >6
CIG 48 10 25 25 35
  [25]  
35
  [25]  
35 35 40 40 40 40 40 40
Cover BKN OVC BKN BKN BKN
  [OVC]  
BKN
  [OVC]  
BKN BKN BKN BKN BKN BKN BKN BKN
FltCat VFR MVFR MVFR MVFR VFR
  [MVFR]  
VFR
  [MVFR]  
VFR VFR VFR VFR VFR VFR VFR VFR
WX -- VCSH VCSH VCSH SHRA VCTS
  [SHRA]  
SHRA VCTS
  [SHRA]  
SHRA VCTS SHRA VCTS -- -- -- -- -- --
WDir 50 50 50 50 60
[60]
60
[60]
60 60 60 60 60 60 60 60
WSpd 9 10 10 10 10
  [10]  
10
  [10]  
10 10 10 10 10 10 10 10
WGst -- -- -- -- --
  [--]  
--
  [--]  
-- -- -- -- -- -- -- --
R04/22
XWnd -1 -1 -1 -1 -3 -3 -3 -3 -3 -3 -3 -3 -3 -3
XGst -- -- -- -- 0 0 -- -- -- -- -- -- -- --
HWnd 9 10 10 10 10 10 10 10 10 10 10 10 10 10
HGst -- -- -- -- 0 0 -- -- -- -- -- -- -- --
R13/31
XWnd 9 10 10 10 10 10 10 10 10 10 10 10 10 10
XGst -- -- -- -- 0 0 -- -- -- -- -- -- -- --
HWnd 1 1 1 1 3 3 3 3 3 3 3 3 3 3
HGst -- -- -- -- 0 0 -- -- -- -- -- -- -- --

Raw TAF
KMDW 301130Z 3012/3112 05010KT P6SM VCSH OVC010
  TEMPO 3012/3013 05010G18KT 4SM SHRA
  FM301400 05010KT P6SM VCSH BKN025 BKN040
  FM301600 06010KT 6SM SHRA VCTS SCT025 BKN035CB
  TEMPO 3016/3018 4SM SHRA OVC025
  FM302000 06010KT P6SM BKN040
  FM310200 04006KT 6SM BR SCT040


Raw METAR
KMDW 301253Z 05009KT 10SM FEW012 SCT027 BKN048 BKN250 22/18 A2996 RMK AO2 SLP136 T02220183
KMDW 301153Z 06011KT 10SM FEW009 SCT017 BKN085 BKN250 22/18 A2995 RMK AO2 DZB14E45 SLP134 P0000 60000 70033 T02220183 10239 20217 53011
KMDW 301136Z 07009KT 10SM -DZ SCT009 OVC015 22/19 A2995 RMK AO2 DZB14 P0000 T02170189
KMDW 301053Z 06012KT 10SM BKN012 BKN019 OVC025 23/19 A2994 RMK AO2 SLP129 T02280194
KMDW 301040Z 03009KT 10SM FEW012 BKN019 OVC025 23/19 A2993 RMK AO2 T02280194
KMDW 300953Z 03008KT 10SM BKN014 BKN019 OVC030 23/19 A2992 RMK AO2 SLP123 OCNL LTGIC DSNT NE CB DSNT NE T02280194
KMDW 300951Z 02008KT 10SM BKN014 BKN019 OVC030 23/19 A2992 RMK AO2 OCNL LTGIC DSNT NE CB DSNT NE

METAR Board
Radar Display
Forecast Discussion

TAF Board Legend

Potential Impact
Threat None Slight Moderate High
Visibility (sm) ≥5.1 5.1>X≥3 3>X≥1 <1
Ceiling (100 ft) ≥30.1 30.1>X≥10 10>X≥5 <5
Wind Speed (kt) <10 10≤X<20 20≤X<30 ≥30
Wind Gust (kt) <15 15≤X<25 25≤X<35 ≥35
Weather No Wx Reported VCTS,-TS,-FZRA,SN TS,FZRA +TS,+FZRA,+SN